Strona główna
METAR-TAF:

METAR-TAF

Lotnisko :

Boscombe Down, Anglia

Szerokość geograficzna: 51-10N, Długość geograficzna: 001-45W, wysokość: 124 m

Aktualna obserwacja pogody

Raport powstał 27 minut temu, godzina 12:20 UTC
Wiatr 9 kt od zachodnio-południowy zachód
Temperatura 22°C
Wilgotność 57%
Ciśnienie 1014 hPa
Widzialność 10 km lub więcej
Mało chmury na wysokości 3500 ft
Zachmurzenie całkowite na wysokości 22000 ft

METAR: EGDM 171220Z 24009KT 9999 FEW035 OVC220 22/13 Q1014 NOSIG RMK BLU BLU

czas: 13:47 (12:47 UTC)

Prognoza

Raport powstał 1 godzina i 57 minut temu, godzina 10:50 UTC
Prognoza ważna od 17 godzina 12 UTC do 17 godzina 18 UTC
Wiatr 8 kt od południowy zachód
Widzialność 10 km lub więcej
Mało chmury na wysokości 4000 ft

TAF: EGDM 171050Z 1712/1718 22008KT 9999 FEW040

Obserwacja i prognoza pogody dla ponad 4000 lotnisk (raport METAR i TAF).

Dostępne stacje oznaczono żółtymi i czerwonymi punktami na mapie.

Najedź kursorem aby zobaczyć nazwę stacji.

Kliknij aby zobaczyć obserwacje i prognozy pogody.

Aby zmienić mapę: kliknij na zielony przycisk z czarnym krzyżykiem, aby powiększyć; na zielony przycisk z myślnikiem, aby pomniejszyć; na zielone strzałki, aby przejść do map sąsiednich.


METAR-TAF: